sensor_id;sensor_type;location;lat;lon;timestamp;temperature;humidity
25188;DHT22;13141;50.414;8.050;2022-10-31T00:00:58;12.50;99.90
25188;DHT22;13141;50.414;8.050;2022-10-31T00:03:24;12.50;99.90
25188;DHT22;13141;50.414;8.050;2022-10-31T00:05:51;12.50;99.90
25188;DHT22;13141;50.414;8.050;2022-10-31T00:08:17;12.50;99.90
25188;DHT22;13141;50.414;8.050;2022-10-31T00:10:44;12.40;99.90
25188;DHT22;13141;50.414;8.050;2022-10-31T00:13:11;12.40;99.90
25188;DHT22;13141;50.414;8.050;2022-10-31T00:15:38;12.30;99.90
25188;DHT22;13141;50.414;8.050;2022-10-31T00:18:05;12.30;99.90
25188;DHT22;13141;50.414;8.050;2022-10-31T00:20:32;12.30;99.90
25188;DHT22;13141;50.414;8.050;2022-10-31T00:22:58;12.30;99.90
25188;DHT22;13141;50.414;8.050;2022-10-31T00:25:24;12.30;99.90
25188;DHT22;13141;50.414;8.050;2022-10-31T00:27:50;12.20;99.90
25188;DHT22;13141;50.414;8.050;2022-10-31T00:30:16;12.20;99.90
25188;DHT22;13141;50.414;8.050;2022-10-31T00:32:41;12.10;99.90
25188;DHT22;13141;50.414;8.050;2022-10-31T00:35:07;12.10;99.90
25188;DHT22;13141;50.414;8.050;2022-10-31T00:37:32;12.20;99.90
25188;DHT22;13141;50.414;8.050;2022-10-31T00:39:58;12.10;99.90
25188;DHT22;13141;50.414;8.050;2022-10-31T00:42:23;12.10;99.90
25188;DHT22;13141;50.414;8.050;2022-10-31T00:44:49;12.20;99.90
25188;DHT22;13141;50.414;8.050;2022-10-31T00:47:14;12.10;99.90
25188;DHT22;13141;50.414;8.050;2022-10-31T00:49:40;12.00;99.90
25188;DHT22;13141;50.414;8.050;2022-10-31T00:52:05;12.00;99.90
25188;DHT22;13141;50.414;8.050;2022-10-31T00:54:31;12.00;99.90
25188;DHT22;13141;50.414;8.050;2022-10-31T00:56:57;12.00;99.90
25188;DHT22;13141;50.414;8.050;2022-10-31T00:59:23;12.00;99.90
25188;DHT22;13141;50.414;8.050;2022-10-31T01:01:48;12.10;99.90
25188;DHT22;13141;50.414;8.050;2022-10-31T01:04:14;12.20;99.90
25188;DHT22;13141;50.414;8.050;2022-10-31T01:06:39;12.00;99.90
25188;DHT22;13141;50.414;8.050;2022-10-31T01:09:05;11.90;99.90
25188;DHT22;13141;50.414;8.050;2022-10-31T01:11:30;11.80;99.90
25188;DHT22;13141;50.414;8.050;2022-10-31T01:13:56;11.80;99.90
25188;DHT22;13141;50.414;8.050;2022-10-31T01:16:24;12.10;99.90
25188;DHT22;13141;50.414;8.050;2022-10-31T01:18:51;11.90;99.90
25188;DHT22;13141;50.414;8.050;2022-10-31T01:21:24;11.80;99.90
25188;DHT22;13141;50.414;8.050;2022-10-31T01:23:52;11.80;99.90
25188;DHT22;13141;50.414;8.050;2022-10-31T01:26:21;11.80;99.90
25188;DHT22;13141;50.414;8.050;2022-10-31T01:28:50;11.80;99.90
25188;DHT22;13141;50.414;8.050;2022-10-31T01:31:17;11.80;99.90
25188;DHT22;13141;50.414;8.050;2022-10-31T01:33:43;11.80;99.90
25188;DHT22;13141;50.414;8.050;2022-10-31T01:36:35;11.80;99.90
25188;DHT22;13141;50.414;8.050;2022-10-31T01:39:04;11.80;99.90
25188;DHT22;13141;50.414;8.050;2022-10-31T01:41:33;11.70;99.90
25188;DHT22;13141;50.414;8.050;2022-10-31T01:46:59;11.70;99.90
25188;DHT22;13141;50.414;8.050;2022-10-31T01:49:49;11.70;99.90
25188;DHT22;13141;50.414;8.050;2022-10-31T01:52:26;11.70;99.90
25188;DHT22;13141;50.414;8.050;2022-10-31T01:55:00;11.60;99.90
25188;DHT22;13141;50.414;8.050;2022-10-31T01:57:27;11.50;99.90
25188;DHT22;13141;50.414;8.050;2022-10-31T01:59:57;11.50;99.90
25188;DHT22;13141;50.414;8.050;2022-10-31T02:02:25;11.50;99.90
25188;DHT22;13141;50.414;8.050;2022-10-31T02:04:53;11.40;99.90
25188;DHT22;13141;50.414;8.050;2022-10-31T02:07:28;11.40;99.90
25188;DHT22;13141;50.414;8.050;2022-10-31T02:09:56;11.50;99.90
25188;DHT22;13141;50.414;8.050;2022-10-31T02:12:22;11.50;99.90
25188;DHT22;13141;50.414;8.050;2022-10-31T02:14:48;11.50;99.90
25188;DHT22;13141;50.414;8.050;2022-10-31T02:17:14;11.60;99.90
25188;DHT22;13141;50.414;8.050;2022-10-31T02:20:02;11.60;99.90
25188;DHT22;13141;50.414;8.050;2022-10-31T02:22:47;11.60;99.90
25188;DHT22;13141;50.414;8.050;2022-10-31T02:28:25;11.60;99.90
25188;DHT22;13141;50.414;8.050;2022-10-31T02:33:42;11.50;99.90
25188;DHT22;13141;50.414;8.050;2022-10-31T02:36:20;11.50;99.90
25188;DHT22;13141;50.414;8.050;2022-10-31T02:39:06;11.60;99.90
25188;DHT22;13141;50.414;8.050;2022-10-31T02:41:46;11.60;99.90
25188;DHT22;13141;50.414;8.050;2022-10-31T02:49:40;11.60;99.90
25188;DHT22;13141;50.414;8.050;2022-10-31T02:52:21;11.60;99.90
25188;DHT22;13141;50.414;8.050;2022-10-31T02:54:49;11.60;99.90
25188;DHT22;13141;50.414;8.050;2022-10-31T02:57:17;11.70;99.90
25188;DHT22;13141;50.414;8.050;2022-10-31T02:59:47;11.60;99.90
25188;DHT22;13141;50.414;8.050;2022-10-31T03:05:23;11.50;99.90
25188;DHT22;13141;50.414;8.050;2022-10-31T03:08:03;11.50;99.90
25188;DHT22;13141;50.414;8.050;2022-10-31T03:15:51;11.50;99.90
25188;DHT22;13141;50.414;8.050;2022-10-31T03:18:29;11.50;99.90
25188;DHT22;13141;50.414;8.050;2022-10-31T03:21:04;11.50;99.90
25188;DHT22;13141;50.414;8.050;2022-10-31T03:23:32;11.40;99.90
25188;DHT22;13141;50.414;8.050;2022-10-31T03:26:00;11.40;99.90
25188;DHT22;13141;50.414;8.050;2022-10-31T03:28:32;11.40;99.90
25188;DHT22;13141;50.414;8.050;2022-10-31T03:30:59;11.40;99.90
25188;DHT22;13141;50.414;8.050;2022-10-31T03:33:28;11.30;99.90
25188;DHT22;13141;50.414;8.050;2022-10-31T03:35:55;11.30;99.90
25188;DHT22;13141;50.414;8.050;2022-10-31T03:38:23;11.30;99.90
25188;DHT22;13141;50.414;8.050;2022-10-31T03:40:51;11.40;99.90
25188;DHT22;13141;50.414;8.050;2022-10-31T03:43:19;11.40;99.90
25188;DHT22;13141;50.414;8.050;2022-10-31T03:45:47;11.40;99.90
25188;DHT22;13141;50.414;8.050;2022-10-31T03:48:15;11.40;99.90
25188;DHT22;13141;50.414;8.050;2022-10-31T03:53:46;11.50;99.90
25188;DHT22;13141;50.414;8.050;2022-10-31T03:56:37;11.50;99.90
25188;DHT22;13141;50.414;8.050;2022-10-31T04:01:38;11.50;99.90
25188;DHT22;13141;50.414;8.050;2022-10-31T04:04:06;11.50;99.90
25188;DHT22;13141;50.414;8.050;2022-10-31T04:06:34;11.50;99.90
25188;DHT22;13141;50.414;8.050;2022-10-31T04:09:04;11.50;99.90
25188;DHT22;13141;50.414;8.050;2022-10-31T04:11:33;11.50;99.90
25188;DHT22;13141;50.414;8.050;2022-10-31T04:14:01;11.40;99.90
25188;DHT22;13141;50.414;8.050;2022-10-31T04:16:27;11.40;99.90
25188;DHT22;13141;50.414;8.050;2022-10-31T04:18:53;11.30;99.90
25188;DHT22;13141;50.414;8.050;2022-10-31T04:21:18;11.30;99.90
25188;DHT22;13141;50.414;8.050;2022-10-31T04:23:44;11.30;99.90
25188;DHT22;13141;50.414;8.050;2022-10-31T04:26:13;11.20;99.90
25188;DHT22;13141;50.414;8.050;2022-10-31T04:28:38;11.20;99.90
25188;DHT22;13141;50.414;8.050;2022-10-31T04:31:04;11.20;99.90
25188;DHT22;13141;50.414;8.050;2022-10-31T04:33:30;11.20;99.90
25188;DHT22;13141;50.414;8.050;2022-10-31T04:35:56;11.20;99.90
25188;DHT22;13141;50.414;8.050;2022-10-31T04:38:21;11.20;99.90
25188;DHT22;13141;50.414;8.050;2022-10-31T04:40:47;11.20;99.90
25188;DHT22;13141;50.414;8.050;2022-10-31T04:43:12;11.20;99.90
25188;DHT22;13141;50.414;8.050;2022-10-31T04:45:38;11.20;99.90
25188;DHT22;13141;50.414;8.050;2022-10-31T04:48:04;11.20;99.90
25188;DHT22;13141;50.414;8.050;2022-10-31T04:50:29;11.20;99.90
25188;DHT22;13141;50.414;8.050;2022-10-31T04:52:55;11.20;99.90
25188;DHT22;13141;50.414;8.050;2022-10-31T04:55:20;11.20;99.90
25188;DHT22;13141;50.414;8.050;2022-10-31T04:57:47;11.20;99.90
25188;DHT22;13141;50.414;8.050;2022-10-31T05:00:15;11.20;99.90
25188;DHT22;13141;50.414;8.050;2022-10-31T05:02:52;11.10;99.90
25188;DHT22;13141;50.414;8.050;2022-10-31T05:05:20;11.10;99.90
25188;DHT22;13141;50.414;8.050;2022-10-31T05:07:47;11.00;99.90
25188;DHT22;13141;50.414;8.050;2022-10-31T05:10:15;10.90;99.90
25188;DHT22;13141;50.414;8.050;2022-10-31T05:12:49;10.90;99.90
25188;DHT22;13141;50.414;8.050;2022-10-31T05:15:16;11.00;99.90
25188;DHT22;13141;50.414;8.050;2022-10-31T05:17:42;11.10;99.90
25188;DHT22;13141;50.414;8.050;2022-10-31T05:20:09;11.10;99.90
25188;DHT22;13141;50.414;8.050;2022-10-31T05:22:34;11.10;99.90
25188;DHT22;13141;50.414;8.050;2022-10-31T05:25:00;11.10;99.90
25188;DHT22;13141;50.414;8.050;2022-10-31T05:27:26;11.00;99.90
25188;DHT22;13141;50.414;8.050;2022-10-31T05:29:51;10.90;99.90
25188;DHT22;13141;50.414;8.050;2022-10-31T05:32:17;10.90;99.90
25188;DHT22;13141;50.414;8.050;2022-10-31T05:34:42;10.80;99.90
25188;DHT22;13141;50.414;8.050;2022-10-31T05:37:08;10.70;99.90
25188;DHT22;13141;50.414;8.050;2022-10-31T05:39:33;10.70;99.90
25188;DHT22;13141;50.414;8.050;2022-10-31T05:41:59;10.60;99.90
25188;DHT22;13141;50.414;8.050;2022-10-31T05:44:24;10.70;99.90
25188;DHT22;13141;50.414;8.050;2022-10-31T05:46:50;10.80;99.90
25188;DHT22;13141;50.414;8.050;2022-10-31T05:49:15;10.80;99.90
25188;DHT22;13141;50.414;8.050;2022-10-31T05:51:42;10.90;99.90
25188;DHT22;13141;50.414;8.050;2022-10-31T05:54:08;11.00;99.90
25188;DHT22;13141;50.414;8.050;2022-10-31T05:56:33;11.00;99.90
25188;DHT22;13141;50.414;8.050;2022-10-31T05:58:59;10.90;99.90
25188;DHT22;13141;50.414;8.050;2022-10-31T06:01:24;11.20;99.90
25188;DHT22;13141;50.414;8.050;2022-10-31T06:03:50;10.90;99.90
25188;DHT22;13141;50.414;8.050;2022-10-31T06:06:15;11.00;99.90
25188;DHT22;13141;50.414;8.050;2022-10-31T06:08:41;11.00;99.90
25188;DHT22;13141;50.414;8.050;2022-10-31T06:11:07;11.00;99.90
25188;DHT22;13141;50.414;8.050;2022-10-31T06:13:33;11.10;99.90
25188;DHT22;13141;50.414;8.050;2022-10-31T06:15:58;11.10;99.90
25188;DHT22;13141;50.414;8.050;2022-10-31T06:18:24;11.00;99.90
25188;DHT22;13141;50.414;8.050;2022-10-31T06:20:50;10.90;99.90
25188;DHT22;13141;50.414;8.050;2022-10-31T06:23:15;10.90;99.90
25188;DHT22;13141;50.414;8.050;2022-10-31T06:25:41;10.90;99.90
25188;DHT22;13141;50.414;8.050;2022-10-31T06:28:06;11.00;99.90
25188;DHT22;13141;50.414;8.050;2022-10-31T06:30:32;11.00;99.90
25188;DHT22;13141;50.414;8.050;2022-10-31T06:33:05;11.10;99.90
25188;DHT22;13141;50.414;8.050;2022-10-31T06:35:31;11.20;99.90
25188;DHT22;13141;50.414;8.050;2022-10-31T06:37:57;11.20;99.90
25188;DHT22;13141;50.414;8.050;2022-10-31T06:40:23;11.20;99.90
25188;DHT22;13141;50.414;8.050;2022-10-31T06:43:01;11.10;99.90
25188;DHT22;13141;50.414;8.050;2022-10-31T06:45:27;11.00;99.90
25188;DHT22;13141;50.414;8.050;2022-10-31T06:47:53;11.00;99.90
25188;DHT22;13141;50.414;8.050;2022-10-31T06:50:20;11.10;99.90
25188;DHT22;13141;50.414;8.050;2022-10-31T06:52:53;11.00;99.90
25188;DHT22;13141;50.414;8.050;2022-10-31T06:55:19;11.10;99.90
25188;DHT22;13141;50.414;8.050;2022-10-31T06:58:06;11.10;99.90
25188;DHT22;13141;50.414;8.050;2022-10-31T07:00:32;11.20;99.90
25188;DHT22;13141;50.414;8.050;2022-10-31T07:02:59;11.30;99.90
25188;DHT22;13141;50.414;8.050;2022-10-31T07:05:26;11.30;99.90
25188;DHT22;13141;50.414;8.050;2022-10-31T07:07:56;11.40;99.90
25188;DHT22;13141;50.414;8.050;2022-10-31T07:10:23;11.40;99.90
25188;DHT22;13141;50.414;8.050;2022-10-31T07:13:00;11.50;99.90
25188;DHT22;13141;50.414;8.050;2022-10-31T07:15:28;11.50;99.90
25188;DHT22;13141;50.414;8.050;2022-10-31T07:17:59;11.50;99.90
25188;DHT22;13141;50.414;8.050;2022-10-31T07:20:26;11.50;99.90
25188;DHT22;13141;50.414;8.050;2022-10-31T07:22:52;11.60;99.90
25188;DHT22;13141;50.414;8.050;2022-10-31T07:25:17;11.60;99.90
25188;DHT22;13141;50.414;8.050;2022-10-31T07:27:43;11.60;99.90
25188;DHT22;13141;50.414;8.050;2022-10-31T07:30:10;11.60;99.90
25188;DHT22;13141;50.414;8.050;2022-10-31T07:32:39;11.60;99.90
25188;DHT22;13141;50.414;8.050;2022-10-31T07:35:07;11.60;99.90
25188;DHT22;13141;50.414;8.050;2022-10-31T07:37:33;11.60;99.90
25188;DHT22;13141;50.414;8.050;2022-10-31T07:39:58;11.60;99.90
25188;DHT22;13141;50.414;8.050;2022-10-31T07:42:24;11.60;99.90
25188;DHT22;13141;50.414;8.050;2022-10-31T07:44:50;11.70;99.90
25188;DHT22;13141;50.414;8.050;2022-10-31T07:47:15;11.70;99.90
25188;DHT22;13141;50.414;8.050;2022-10-31T07:49:41;11.80;99.90
25188;DHT22;13141;50.414;8.050;2022-10-31T07:52:06;11.70;99.90
25188;DHT22;13141;50.414;8.050;2022-10-31T07:54:32;11.80;99.90
25188;DHT22;13141;50.414;8.050;2022-10-31T07:56:57;11.80;99.90
25188;DHT22;13141;50.414;8.050;2022-10-31T07:59:23;11.70;99.90
25188;DHT22;13141;50.414;8.050;2022-10-31T08:01:48;11.80;99.90
25188;DHT22;13141;50.414;8.050;2022-10-31T08:04:14;11.90;99.90
25188;DHT22;13141;50.414;8.050;2022-10-31T08:06:39;11.90;99.90
25188;DHT22;13141;50.414;8.050;2022-10-31T08:09:05;11.90;99.90
25188;DHT22;13141;50.414;8.050;2022-10-31T08:11:30;11.90;99.90
25188;DHT22;13141;50.414;8.050;2022-10-31T08:13:56;12.00;99.90
25188;DHT22;13141;50.414;8.050;2022-10-31T08:16:21;12.00;99.90
25188;DHT22;13141;50.414;8.050;2022-10-31T08:18:47;12.00;99.90
25188;DHT22;13141;50.414;8.050;2022-10-31T08:21:13;12.00;99.90
25188;DHT22;13141;50.414;8.050;2022-10-31T08:23:38;12.10;99.90
25188;DHT22;13141;50.414;8.050;2022-10-31T08:26:04;12.10;99.90
25188;DHT22;13141;50.414;8.050;2022-10-31T08:28:31;12.20;99.90
25188;DHT22;13141;50.414;8.050;2022-10-31T08:30:58;12.10;99.90
25188;DHT22;13141;50.414;8.050;2022-10-31T08:33:23;11.50;99.90
25188;DHT22;13141;50.414;8.050;2022-10-31T08:35:49;12.20;99.90
25188;DHT22;13141;50.414;8.050;2022-10-31T08:38:15;12.10;99.90
25188;DHT22;13141;50.414;8.050;2022-10-31T08:40:41;12.10;99.90
25188;DHT22;13141;50.414;8.050;2022-10-31T08:43:15;12.00;99.90
25188;DHT22;13141;50.414;8.050;2022-10-31T08:45:42;12.00;99.90
25188;DHT22;13141;50.414;8.050;2022-10-31T08:48:12;12.10;99.90
25188;DHT22;13141;50.414;8.050;2022-10-31T08:50:39;12.20;99.90
25188;DHT22;13141;50.414;8.050;2022-10-31T08:53:10;12.20;99.90
25188;DHT22;13141;50.414;8.050;2022-10-31T08:55:37;12.30;99.90
25188;DHT22;13141;50.414;8.050;2022-10-31T08:58:04;12.30;99.90
25188;DHT22;13141;50.414;8.050;2022-10-31T09:00:31;12.50;99.90
25188;DHT22;13141;50.414;8.050;2022-10-31T09:03:02;12.60;99.90
25188;DHT22;13141;50.414;8.050;2022-10-31T09:05:28;12.70;99.90
25188;DHT22;13141;50.414;8.050;2022-10-31T09:07:58;12.70;99.90
25188;DHT22;13141;50.414;8.050;2022-10-31T09:10:24;12.80;99.90
25188;DHT22;13141;50.414;8.050;2022-10-31T09:15:22;12.70;99.90
25188;DHT22;13141;50.414;8.050;2022-10-31T09:17:48;12.80;99.90
25188;DHT22;13141;50.414;8.050;2022-10-31T09:20:13;12.90;99.90
25188;DHT22;13141;50.414;8.050;2022-10-31T09:22:39;13.00;99.90
25188;DHT22;13141;50.414;8.050;2022-10-31T09:25:05;13.10;99.90
25188;DHT22;13141;50.414;8.050;2022-10-31T09:27:30;13.00;99.90
25188;DHT22;13141;50.414;8.050;2022-10-31T09:29:56;13.00;99.90
25188;DHT22;13141;50.414;8.050;2022-10-31T09:32:21;13.00;99.90
25188;DHT22;13141;50.414;8.050;2022-10-31T09:34:47;13.20;99.90
25188;DHT22;13141;50.414;8.050;2022-10-31T09:37:12;13.10;99.90
25188;DHT22;13141;50.414;8.050;2022-10-31T09:39:38;13.10;99.90
25188;DHT22;13141;50.414;8.050;2022-10-31T09:45:16;13.30;99.90
25188;DHT22;13141;50.414;8.050;2022-10-31T09:50:22;13.30;99.90
25188;DHT22;13141;50.414;8.050;2022-10-31T09:53:03;13.40;99.90
25188;DHT22;13141;50.414;8.050;2022-10-31T09:55:40;13.40;99.90
25188;DHT22;13141;50.414;8.050;2022-10-31T09:58:14;13.30;99.90
25188;DHT22;13141;50.414;8.050;2022-10-31T10:00:40;13.30;99.90
25188;DHT22;13141;50.414;8.050;2022-10-31T10:03:22;13.40;99.90
25188;DHT22;13141;50.414;8.050;2022-10-31T10:06:20;13.50;99.90
25188;DHT22;13141;50.414;8.050;2022-10-31T10:08:47;13.70;99.90
25188;DHT22;13141;50.414;8.050;2022-10-31T10:16:53;14.00;99.90
25188;DHT22;13141;50.414;8.050;2022-10-31T10:22:25;13.90;99.90
25188;DHT22;13141;50.414;8.050;2022-10-31T10:30:56;14.20;99.90
25188;DHT22;13141;50.414;8.050;2022-10-31T10:33:44;14.30;99.90
25188;DHT22;13141;50.414;8.050;2022-10-31T10:36:24;14.30;99.90
25188;DHT22;13141;50.414;8.050;2022-10-31T10:38:59;14.20;99.90
25188;DHT22;13141;50.414;8.050;2022-10-31T10:41:31;14.10;99.90
25188;DHT22;13141;50.414;8.050;2022-10-31T10:43:56;14.00;99.90
25188;DHT22;13141;50.414;8.050;2022-10-31T10:46:42;14.10;99.90
25188;DHT22;13141;50.414;8.050;2022-10-31T10:49:44;14.30;99.90
25188;DHT22;13141;50.414;8.050;2022-10-31T10:55:35;14.80;99.90
25188;DHT22;13141;50.414;8.050;2022-10-31T10:58:07;15.00;99.90
25188;DHT22;13141;50.414;8.050;2022-10-31T11:03:02;15.30;99.90
25188;DHT22;13141;50.414;8.050;2022-10-31T11:05:51;15.30;99.90
25188;DHT22;13141;50.414;8.050;2022-10-31T11:08:30;15.30;99.90
25188;DHT22;13141;50.414;8.050;2022-10-31T11:11:07;15.30;99.90
25188;DHT22;13141;50.414;8.050;2022-10-31T11:13:36;15.50;99.90
25188;DHT22;13141;50.414;8.050;2022-10-31T11:16:08;15.60;99.90
25188;DHT22;13141;50.414;8.050;2022-10-31T11:18:38;15.90;99.90
25188;DHT22;13141;50.414;8.050;2022-10-31T11:21:05;16.10;99.90
25188;DHT22;13141;50.414;8.050;2022-10-31T11:23:31;16.30;99.90
25188;DHT22;13141;50.414;8.050;2022-10-31T11:25:58;16.50;99.90
25188;DHT22;13141;50.414;8.050;2022-10-31T11:28:26;16.70;99.90
25188;DHT22;13141;50.414;8.050;2022-10-31T11:30:57;16.80;99.90
25188;DHT22;13141;50.414;8.050;2022-10-31T11:35:54;16.90;99.90
25188;DHT22;13141;50.414;8.050;2022-10-31T11:38:23;16.80;99.90
25188;DHT22;13141;50.414;8.050;2022-10-31T11:41:14;16.90;99.90
25188;DHT22;13141;50.414;8.050;2022-10-31T11:43:49;16.90;99.90
25188;DHT22;13141;50.414;8.050;2022-10-31T11:46:20;16.90;99.90
25188;DHT22;13141;50.414;8.050;2022-10-31T11:48:49;16.80;99.90
25188;DHT22;13141;50.414;8.050;2022-10-31T11:51:24;16.80;99.90
25188;DHT22;13141;50.414;8.050;2022-10-31T11:53:52;16.90;99.90
25188;DHT22;13141;50.414;8.050;2022-10-31T11:56:19;16.70;99.90
25188;DHT22;13141;50.414;8.050;2022-10-31T11:58:55;16.70;99.90
25188;DHT22;13141;50.414;8.050;2022-10-31T12:01:28;16.70;99.90
25188;DHT22;13141;50.414;8.050;2022-10-31T12:08:59;16.50;99.90
25188;DHT22;13141;50.414;8.050;2022-10-31T12:11:54;16.40;99.90
25188;DHT22;13141;50.414;8.050;2022-10-31T12:14:57;16.50;99.90
25188;DHT22;13141;50.414;8.050;2022-10-31T12:17:30;16.60;99.90
25188;DHT22;13141;50.414;8.050;2022-10-31T12:20:13;16.80;99.90
25188;DHT22;13141;50.414;8.050;2022-10-31T12:25:58;17.10;99.90
25188;DHT22;13141;50.414;8.050;2022-10-31T12:28:54;17.40;99.90
25188;DHT22;13141;50.414;8.050;2022-10-31T12:34:52;17.80;99.90
25188;DHT22;13141;50.414;8.050;2022-10-31T12:57:15;18.20;99.90
25188;DHT22;13141;50.414;8.050;2022-10-31T12:59:48;18.20;99.90
25188;DHT22;13141;50.414;8.050;2022-10-31T13:05:05;18.30;99.90
25188;DHT22;13141;50.414;8.050;2022-10-31T13:07:41;18.40;99.90
25188;DHT22;13141;50.414;8.050;2022-10-31T13:10:21;18.50;99.90
25188;DHT22;13141;50.414;8.050;2022-10-31T13:12:50;18.60;99.90
25188;DHT22;13141;50.414;8.050;2022-10-31T13:15:32;18.70;99.90
25188;DHT22;13141;50.414;8.050;2022-10-31T13:18:05;18.90;99.90
25188;DHT22;13141;50.414;8.050;2022-10-31T13:20:40;18.90;99.90
25188;DHT22;13141;50.414;8.050;2022-10-31T13:23:27;18.90;99.90
25188;DHT22;13141;50.414;8.050;2022-10-31T13:25:55;18.90;99.90
25188;DHT22;13141;50.414;8.050;2022-10-31T13:28:34;19.00;99.90
25188;DHT22;13141;50.414;8.050;2022-10-31T13:31:01;19.00;99.90
25188;DHT22;13141;50.414;8.050;2022-10-31T13:33:29;19.00;99.90
25188;DHT22;13141;50.414;8.050;2022-10-31T13:36:11;19.00;99.90
25188;DHT22;13141;50.414;8.050;2022-10-31T13:38:51;19.00;99.90
25188;DHT22;13141;50.414;8.050;2022-10-31T13:41:40;19.10;99.90
25188;DHT22;13141;50.414;8.050;2022-10-31T13:44:20;19.10;99.90
25188;DHT22;13141;50.414;8.050;2022-10-31T13:46:50;19.10;99.90
25188;DHT22;13141;50.414;8.050;2022-10-31T13:54:45;19.10;99.90
25188;DHT22;13141;50.414;8.050;2022-10-31T13:57:19;19.20;99.90
25188;DHT22;13141;50.414;8.050;2022-10-31T13:59:55;19.20;99.90
25188;DHT22;13141;50.414;8.050;2022-10-31T14:04:56;18.90;99.90
25188;DHT22;13141;50.414;8.050;2022-10-31T14:07:23;18.70;99.90
25188;DHT22;13141;50.414;8.050;2022-10-31T14:09:54;18.70;99.90
25188;DHT22;13141;50.414;8.050;2022-10-31T14:12:39;18.80;99.90
25188;DHT22;13141;50.414;8.050;2022-10-31T14:15:26;18.80;99.90
25188;DHT22;13141;50.414;8.050;2022-10-31T14:20:38;18.70;99.90
25188;DHT22;13141;50.414;8.050;2022-10-31T14:23:39;18.70;99.90
25188;DHT22;13141;50.414;8.050;2022-10-31T14:26:30;18.50;99.90
25188;DHT22;13141;50.414;8.050;2022-10-31T14:29:41;18.40;99.90
25188;DHT22;13141;50.414;8.050;2022-10-31T14:34:33;18.30;99.90
25188;DHT22;13141;50.414;8.050;2022-10-31T14:50:48;18.10;99.90
25188;DHT22;13141;50.414;8.050;2022-10-31T14:53:27;18.20;99.90
25188;DHT22;13141;50.414;8.050;2022-10-31T14:55:56;18.10;99.90
25188;DHT22;13141;50.414;8.050;2022-10-31T14:58:45;18.20;99.90
25188;DHT22;13141;50.414;8.050;2022-10-31T15:01:28;18.20;99.90
25188;DHT22;13141;50.414;8.050;2022-10-31T15:04:03;18.30;99.90
25188;DHT22;13141;50.414;8.050;2022-10-31T15:06:38;18.20;99.90
25188;DHT22;13141;50.414;8.050;2022-10-31T15:09:21;18.10;99.90
25188;DHT22;13141;50.414;8.050;2022-10-31T15:11:47;18.10;99.90
25188;DHT22;13141;50.414;8.050;2022-10-31T15:14:31;18.10;99.90
25188;DHT22;13141;50.414;8.050;2022-10-31T15:16:59;18.40;99.90
25188;DHT22;13141;50.414;8.050;2022-10-31T15:19:29;18.40;99.90
25188;DHT22;13141;50.414;8.050;2022-10-31T15:21:56;18.50;99.90
25188;DHT22;13141;50.414;8.050;2022-10-31T15:24:26;18.50;99.90
25188;DHT22;13141;50.414;8.050;2022-10-31T15:26:54;18.50;99.90
25188;DHT22;13141;50.414;8.050;2022-10-31T15:29:23;18.50;99.90
25188;DHT22;13141;50.414;8.050;2022-10-31T15:32:00;18.50;99.90
25188;DHT22;13141;50.414;8.050;2022-10-31T15:34:39;18.40;99.90
25188;DHT22;13141;50.414;8.050;2022-10-31T15:37:14;18.40;99.90
25188;DHT22;13141;50.414;8.050;2022-10-31T15:39:41;18.30;99.90
25188;DHT22;13141;50.414;8.050;2022-10-31T15:42:35;18.30;99.90
25188;DHT22;13141;50.414;8.050;2022-10-31T15:47:36;18.20;99.90
25188;DHT22;13141;50.414;8.050;2022-10-31T15:50:05;18.20;99.90
25188;DHT22;13141;50.414;8.050;2022-10-31T15:55:21;18.20;99.90
25188;DHT22;13141;50.414;8.050;2022-10-31T15:57:53;18.10;99.90
25188;DHT22;13141;50.414;8.050;2022-10-31T16:00:31;18.10;99.90
25188;DHT22;13141;50.414;8.050;2022-10-31T16:05:46;17.90;99.90
25188;DHT22;13141;50.414;8.050;2022-10-31T16:10:57;17.60;99.90
25188;DHT22;13141;50.414;8.050;2022-10-31T16:13:27;17.60;99.90
25188;DHT22;13141;50.414;8.050;2022-10-31T16:16:17;17.50;99.90
25188;DHT22;13141;50.414;8.050;2022-10-31T16:18:43;17.50;99.90
25188;DHT22;13141;50.414;8.050;2022-10-31T16:21:09;17.40;99.90
25188;DHT22;13141;50.414;8.050;2022-10-31T16:23:38;17.30;99.90
25188;DHT22;13141;50.414;8.050;2022-10-31T16:26:08;17.30;99.90
25188;DHT22;13141;50.414;8.050;2022-10-31T16:28:35;17.20;99.90
25188;DHT22;13141;50.414;8.050;2022-10-31T16:31:01;17.10;99.90
25188;DHT22;13141;50.414;8.050;2022-10-31T16:33:37;17.00;99.90
25188;DHT22;13141;50.414;8.050;2022-10-31T16:36:29;17.00;99.90
25188;DHT22;13141;50.414;8.050;2022-10-31T16:38:56;17.00;99.90
25188;DHT22;13141;50.414;8.050;2022-10-31T16:41:23;16.90;99.90
25188;DHT22;13141;50.414;8.050;2022-10-31T16:43:48;16.90;99.90
25188;DHT22;13141;50.414;8.050;2022-10-31T16:46:16;16.90;99.90
25188;DHT22;13141;50.414;8.050;2022-10-31T16:48:43;16.90;99.90
25188;DHT22;13141;50.414;8.050;2022-10-31T16:51:08;16.80;99.90
25188;DHT22;13141;50.414;8.050;2022-10-31T16:53:34;16.70;99.90
25188;DHT22;13141;50.414;8.050;2022-10-31T16:56:02;16.70;99.90
25188;DHT22;13141;50.414;8.050;2022-10-31T16:58:30;16.70;99.90
25188;DHT22;13141;50.414;8.050;2022-10-31T17:00:57;16.70;99.90
25188;DHT22;13141;50.414;8.050;2022-10-31T17:03:23;16.60;99.90
25188;DHT22;13141;50.414;8.050;2022-10-31T17:05:49;16.60;99.90
25188;DHT22;13141;50.414;8.050;2022-10-31T17:08:14;16.60;99.90
25188;DHT22;13141;50.414;8.050;2022-10-31T17:10:42;16.50;99.90
25188;DHT22;13141;50.414;8.050;2022-10-31T17:13:15;16.40;99.90
25188;DHT22;13141;50.414;8.050;2022-10-31T17:15:45;16.40;99.90
25188;DHT22;13141;50.414;8.050;2022-10-31T17:18:12;16.40;99.90
25188;DHT22;13141;50.414;8.050;2022-10-31T17:20:39;16.40;99.90
25188;DHT22;13141;50.414;8.050;2022-10-31T17:23:04;16.40;99.90
25188;DHT22;13141;50.414;8.050;2022-10-31T17:25:30;16.30;99.90
25188;DHT22;13141;50.414;8.050;2022-10-31T17:27:56;16.30;99.90
25188;DHT22;13141;50.414;8.050;2022-10-31T17:30:22;16.30;99.90
25188;DHT22;13141;50.414;8.050;2022-10-31T17:32:48;16.30;99.90
25188;DHT22;13141;50.414;8.050;2022-10-31T17:35:15;16.20;99.90
25188;DHT22;13141;50.414;8.050;2022-10-31T17:37:42;16.10;99.90
25188;DHT22;13141;50.414;8.050;2022-10-31T17:40:09;16.00;99.90
25188;DHT22;13141;50.414;8.050;2022-10-31T17:42:35;15.70;99.90
25188;DHT22;13141;50.414;8.050;2022-10-31T17:45:01;15.50;99.90
25188;DHT22;13141;50.414;8.050;2022-10-31T17:47:26;15.40;99.90
25188;DHT22;13141;50.414;8.050;2022-10-31T17:49:52;15.20;99.90
25188;DHT22;13141;50.414;8.050;2022-10-31T17:52:18;15.20;99.90
25188;DHT22;13141;50.414;8.050;2022-10-31T17:54:44;15.30;99.90
25188;DHT22;13141;50.414;8.050;2022-10-31T17:57:09;15.40;99.90
25188;DHT22;13141;50.414;8.050;2022-10-31T17:59:35;15.40;99.90